Charter Quote
Worldwide +1-877-727-2538 Call
Select Language Lang
SAFETY RELIABILITY EXPERIENCE

Private Jet Charter Services - Dishforth Airport (EGXD)

Paramount Business Jets offers private jet charter flights and luxury airliner charters to and from Dishforth Airport.

AIRPORT INFORMATION
ICAOEGXD
LOCATIONDishforth, United Kingdom
FACILITY TYPEAIRPORT
Runway Length (ft) Width (ft) Surface Type Elevation (ft)
33/15 6096 151 ASP 116.91803
28/10 4469 151 ASP 116.91803

At Paramount Business Jets you can hire chartered private jets to and from Dishforth Airport with as little as 4 hours of notice. All flights booked via Paramount Business Jets are operated by certified direct air carriers that meet and exceed the FAA part 135 and 121 protocol or a foreign equivalent safety authority. Furthermore, Paramount Business Jets subscribes to ARGUS for their third party safety checks of operators, aircraft, and crews prior each and every flight to and from Dishforth Airport and worldwide.

  • Quote a trip using Dishforth Airport or call us 24/7 - 365 days a year at +1-877-727-2538.
Questions? Call +1-877-727-2538

METAR Weather Data at Dishforth Airport, EGXD

STATIONEGXD
OBSERVEDMon Jun 6, 09:50 UTC
NOWMon Oct 21, 19:50 UTC
AGE29578:00 hr ago
WINDSSE at 5 mph
VISIBILITY16 miles
METAREGXD 060950Z AUTO 16004KT 9999 // NCD 18/11 Q1023

Call us on +1-877-727-2538 (24 Hours) to Hire a Private Jet or Get a Quick Quote.

Find Airports Near any Location

Processing
...